sensor_id;sensor_type;location;lat;lon;timestamp;P1;durP1;ratioP1;P2;durP2;ratioP2
72117;SDS011;59992;47.490;8.736;2022-10-31T00:00:23;9.20;;;3.40;;
72117;SDS011;59992;47.490;8.736;2022-10-31T00:03:12;6.60;;;3.00;;
72117;SDS011;59992;47.490;8.736;2022-10-31T00:06:00;7.00;;;3.10;;
72117;SDS011;59992;47.490;8.736;2022-10-31T00:08:52;10.20;;;2.80;;
72117;SDS011;59992;47.490;8.736;2022-10-31T00:11:42;6.70;;;3.30;;
72117;SDS011;59992;47.490;8.736;2022-10-31T00:14:30;7.50;;;2.90;;
72117;SDS011;59992;47.490;8.736;2022-10-31T00:17:19;7.30;;;2.90;;
72117;SDS011;59992;47.490;8.736;2022-10-31T00:20:09;7.60;;;3.40;;
72117;SDS011;59992;47.490;8.736;2022-10-31T00:22:57;9.70;;;2.80;;
72117;SDS011;59992;47.490;8.736;2022-10-31T00:25:46;11.40;;;2.90;;
72117;SDS011;59992;47.490;8.736;2022-10-31T00:28:34;12.20;;;2.50;;
72117;SDS011;59992;47.490;8.736;2022-10-31T00:31:22;7.10;;;2.80;;
72117;SDS011;59992;47.490;8.736;2022-10-31T00:34:11;8.10;;;3.40;;
72117;SDS011;59992;47.490;8.736;2022-10-31T00:36:59;10.60;;;3.40;;
72117;SDS011;59992;47.490;8.736;2022-10-31T00:39:47;8.10;;;2.80;;
72117;SDS011;59992;47.490;8.736;2022-10-31T00:42:36;5.90;;;2.40;;
72117;SDS011;59992;47.490;8.736;2022-10-31T00:45:25;8.70;;;2.40;;
72117;SDS011;59992;47.490;8.736;2022-10-31T00:48:13;7.00;;;2.70;;
72117;SDS011;59992;47.490;8.736;2022-10-31T00:51:01;11.10;;;3.00;;
72117;SDS011;59992;47.490;8.736;2022-10-31T00:53:50;8.90;;;2.50;;
72117;SDS011;59992;47.490;8.736;2022-10-31T00:56:38;11.10;;;3.30;;
72117;SDS011;59992;47.490;8.736;2022-10-31T00:59:26;12.90;;;3.60;;
72117;SDS011;59992;47.490;8.736;2022-10-31T01:02:14;7.20;;;3.80;;
72117;SDS011;59992;47.490;8.736;2022-10-31T01:05:03;10.90;;;3.50;;
72117;SDS011;59992;47.490;8.736;2022-10-31T01:07:51;11.40;;;3.10;;
72117;SDS011;59992;47.490;8.736;2022-10-31T01:10:39;10.20;;;3.30;;
72117;SDS011;59992;47.490;8.736;2022-10-31T01:13:28;6.50;;;2.50;;
72117;SDS011;59992;47.490;8.736;2022-10-31T01:16:17;11.60;;;3.00;;
72117;SDS011;59992;47.490;8.736;2022-10-31T01:19:06;6.20;;;2.60;;
72117;SDS011;59992;47.490;8.736;2022-10-31T01:21:55;9.70;;;2.70;;
72117;SDS011;59992;47.490;8.736;2022-10-31T01:24:43;8.50;;;2.80;;
72117;SDS011;59992;47.490;8.736;2022-10-31T01:27:31;9.00;;;2.90;;
72117;SDS011;59992;47.490;8.736;2022-10-31T01:30:20;9.80;;;2.50;;
72117;SDS011;59992;47.490;8.736;2022-10-31T01:33:08;6.10;;;2.30;;
72117;SDS011;59992;47.490;8.736;2022-10-31T01:35:56;9.20;;;2.80;;
72117;SDS011;59992;47.490;8.736;2022-10-31T01:38:45;6.80;;;2.50;;
72117;SDS011;59992;47.490;8.736;2022-10-31T01:41:35;7.30;;;2.40;;
72117;SDS011;59992;47.490;8.736;2022-10-31T01:47:41;8.40;;;2.80;;
72117;SDS011;59992;47.490;8.736;2022-10-31T01:50:33;8.90;;;2.90;;
72117;SDS011;59992;47.490;8.736;2022-10-31T01:53:24;7.50;;;2.80;;
72117;SDS011;59992;47.490;8.736;2022-10-31T01:56:13;6.90;;;2.10;;
72117;SDS011;59992;47.490;8.736;2022-10-31T01:59:04;9.20;;;2.30;;
72117;SDS011;59992;47.490;8.736;2022-10-31T02:01:57;7.40;;;2.60;;
72117;SDS011;59992;47.490;8.736;2022-10-31T02:04:45;5.60;;;2.30;;
72117;SDS011;59992;47.490;8.736;2022-10-31T02:07:36;9.90;;;2.90;;
72117;SDS011;59992;47.490;8.736;2022-10-31T02:10:28;8.50;;;2.70;;
72117;SDS011;59992;47.490;8.736;2022-10-31T02:13:19;6.40;;;2.50;;
72117;SDS011;59992;47.490;8.736;2022-10-31T02:16:09;10.50;;;2.60;;
72117;SDS011;59992;47.490;8.736;2022-10-31T02:18:57;4.70;;;2.30;;
72117;SDS011;59992;47.490;8.736;2022-10-31T02:21:46;10.60;;;2.10;;
72117;SDS011;59992;47.490;8.736;2022-10-31T02:24:45;8.30;;;2.30;;
72117;SDS011;59992;47.490;8.736;2022-10-31T02:27:46;9.70;;;2.80;;
72117;SDS011;59992;47.490;8.736;2022-10-31T02:30:58;8.10;;;2.90;;
72117;SDS011;59992;47.490;8.736;2022-10-31T02:33:57;6.80;;;2.80;;
72117;SDS011;59992;47.490;8.736;2022-10-31T02:36:50;8.70;;;2.80;;
72117;SDS011;59992;47.490;8.736;2022-10-31T02:39:44;5.90;;;2.00;;
72117;SDS011;59992;47.490;8.736;2022-10-31T02:42:42;5.40;;;2.50;;
72117;SDS011;59992;47.490;8.736;2022-10-31T02:45:39;4.50;;;2.40;;
72117;SDS011;59992;47.490;8.736;2022-10-31T02:48:33;6.40;;;2.90;;
72117;SDS011;59992;47.490;8.736;2022-10-31T02:51:26;9.80;;;2.30;;
72117;SDS011;59992;47.490;8.736;2022-10-31T02:54:18;5.80;;;2.40;;
72117;SDS011;59992;47.490;8.736;2022-10-31T02:57:09;14.30;;;3.10;;
72117;SDS011;59992;47.490;8.736;2022-10-31T02:59:57;8.60;;;2.40;;
72117;SDS011;59992;47.490;8.736;2022-10-31T03:03:00;8.10;;;2.50;;
72117;SDS011;59992;47.490;8.736;2022-10-31T03:05:55;10.00;;;2.80;;
72117;SDS011;59992;47.490;8.736;2022-10-31T03:08:50;7.70;;;2.20;;
72117;SDS011;59992;47.490;8.736;2022-10-31T03:11:46;9.20;;;2.50;;
72117;SDS011;59992;47.490;8.736;2022-10-31T03:14:47;6.30;;;2.20;;
72117;SDS011;59992;47.490;8.736;2022-10-31T03:17:42;4.40;;;2.40;;
72117;SDS011;59992;47.490;8.736;2022-10-31T03:20:37;5.90;;;2.10;;
72117;SDS011;59992;47.490;8.736;2022-10-31T03:23:28;6.00;;;2.20;;
72117;SDS011;59992;47.490;8.736;2022-10-31T03:26:17;6.70;;;2.60;;
72117;SDS011;59992;47.490;8.736;2022-10-31T03:29:09;5.90;;;2.30;;
72117;SDS011;59992;47.490;8.736;2022-10-31T03:32:01;8.50;;;2.10;;
72117;SDS011;59992;47.490;8.736;2022-10-31T03:34:53;7.90;;;1.90;;
72117;SDS011;59992;47.490;8.736;2022-10-31T03:37:44;6.90;;;2.40;;
72117;SDS011;59992;47.490;8.736;2022-10-31T03:40:36;5.80;;;2.20;;
72117;SDS011;59992;47.490;8.736;2022-10-31T03:43:28;5.10;;;2.10;;
72117;SDS011;59992;47.490;8.736;2022-10-31T03:46:20;4.80;;;2.20;;
72117;SDS011;59992;47.490;8.736;2022-10-31T03:49:08;6.10;;;2.50;;
72117;SDS011;59992;47.490;8.736;2022-10-31T03:51:58;5.00;;;2.30;;
72117;SDS011;59992;47.490;8.736;2022-10-31T03:54:57;9.30;;;2.50;;
72117;SDS011;59992;47.490;8.736;2022-10-31T03:57:53;7.70;;;3.20;;
72117;SDS011;59992;47.490;8.736;2022-10-31T04:00:45;6.60;;;2.50;;
72117;SDS011;59992;47.490;8.736;2022-10-31T04:03:36;8.40;;;2.60;;
72117;SDS011;59992;47.490;8.736;2022-10-31T04:06:26;9.00;;;2.80;;
72117;SDS011;59992;47.490;8.736;2022-10-31T04:09:18;8.80;;;2.60;;
72117;SDS011;59992;47.490;8.736;2022-10-31T04:12:07;9.50;;;3.00;;
72117;SDS011;59992;47.490;8.736;2022-10-31T04:15:01;9.60;;;2.70;;
72117;SDS011;59992;47.490;8.736;2022-10-31T04:17:53;8.10;;;2.60;;
72117;SDS011;59992;47.490;8.736;2022-10-31T04:20:46;7.70;;;3.00;;
72117;SDS011;59992;47.490;8.736;2022-10-31T04:23:36;8.40;;;2.70;;
72117;SDS011;59992;47.490;8.736;2022-10-31T04:26:24;8.70;;;3.00;;
72117;SDS011;59992;47.490;8.736;2022-10-31T04:29:13;9.90;;;2.90;;
72117;SDS011;59992;47.490;8.736;2022-10-31T04:32:01;7.00;;;2.40;;
72117;SDS011;59992;47.490;8.736;2022-10-31T04:34:49;6.60;;;2.30;;
72117;SDS011;59992;47.490;8.736;2022-10-31T04:37:37;3.40;;;1.90;;
72117;SDS011;59992;47.490;8.736;2022-10-31T04:40:25;6.20;;;2.30;;
72117;SDS011;59992;47.490;8.736;2022-10-31T04:43:13;5.10;;;2.30;;
72117;SDS011;59992;47.490;8.736;2022-10-31T04:46:02;6.40;;;2.30;;
72117;SDS011;59992;47.490;8.736;2022-10-31T04:48:51;5.80;;;2.30;;
72117;SDS011;59992;47.490;8.736;2022-10-31T04:51:38;7.80;;;2.10;;
72117;SDS011;59992;47.490;8.736;2022-10-31T04:54:27;5.60;;;2.10;;
72117;SDS011;59992;47.490;8.736;2022-10-31T04:57:15;4.90;;;2.20;;
72117;SDS011;59992;47.490;8.736;2022-10-31T05:00:03;4.60;;;2.40;;
72117;SDS011;59992;47.490;8.736;2022-10-31T05:02:53;5.10;;;2.30;;
72117;SDS011;59992;47.490;8.736;2022-10-31T05:05:43;5.30;;;1.80;;
72117;SDS011;59992;47.490;8.736;2022-10-31T05:08:31;5.60;;;1.90;;
72117;SDS011;59992;47.490;8.736;2022-10-31T05:11:20;4.80;;;1.60;;
72117;SDS011;59992;47.490;8.736;2022-10-31T05:14:08;8.50;;;2.00;;
72117;SDS011;59992;47.490;8.736;2022-10-31T05:16:56;7.50;;;2.00;;
72117;SDS011;59992;47.490;8.736;2022-10-31T05:19:44;9.60;;;2.10;;
72117;SDS011;59992;47.490;8.736;2022-10-31T05:22:32;4.60;;;2.00;;
72117;SDS011;59992;47.490;8.736;2022-10-31T05:25:22;3.00;;;1.90;;
72117;SDS011;59992;47.490;8.736;2022-10-31T05:28:10;4.50;;;2.10;;
72117;SDS011;59992;47.490;8.736;2022-10-31T05:30:59;6.10;;;1.80;;
72117;SDS011;59992;47.490;8.736;2022-10-31T05:33:47;5.40;;;2.50;;
72117;SDS011;59992;47.490;8.736;2022-10-31T05:36:35;5.20;;;2.10;;
72117;SDS011;59992;47.490;8.736;2022-10-31T05:39:24;4.00;;;1.70;;
72117;SDS011;59992;47.490;8.736;2022-10-31T05:42:12;4.50;;;1.70;;
72117;SDS011;59992;47.490;8.736;2022-10-31T05:45:00;5.30;;;1.70;;
72117;SDS011;59992;47.490;8.736;2022-10-31T05:47:51;4.00;;;2.00;;
72117;SDS011;59992;47.490;8.736;2022-10-31T05:50:40;3.60;;;1.90;;
72117;SDS011;59992;47.490;8.736;2022-10-31T05:53:28;6.00;;;2.50;;
72117;SDS011;59992;47.490;8.736;2022-10-31T05:56:16;6.10;;;2.40;;
72117;SDS011;59992;47.490;8.736;2022-10-31T05:59:04;5.40;;;2.00;;
72117;SDS011;59992;47.490;8.736;2022-10-31T06:01:52;5.80;;;2.60;;
72117;SDS011;59992;47.490;8.736;2022-10-31T06:04:40;11.00;;;2.70;;
72117;SDS011;59992;47.490;8.736;2022-10-31T06:07:32;8.10;;;2.40;;
72117;SDS011;59992;47.490;8.736;2022-10-31T06:10:21;9.00;;;3.20;;
72117;SDS011;59992;47.490;8.736;2022-10-31T06:13:09;8.40;;;2.70;;
72117;SDS011;59992;47.490;8.736;2022-10-31T06:15:58;8.90;;;3.20;;
72117;SDS011;59992;47.490;8.736;2022-10-31T06:18:46;11.90;;;3.90;;
72117;SDS011;59992;47.490;8.736;2022-10-31T06:21:33;10.20;;;4.00;;
72117;SDS011;59992;47.490;8.736;2022-10-31T06:24:22;10.20;;;4.00;;
72117;SDS011;59992;47.490;8.736;2022-10-31T06:27:09;12.70;;;4.10;;
72117;SDS011;59992;47.490;8.736;2022-10-31T06:29:58;11.90;;;5.00;;
72117;SDS011;59992;47.490;8.736;2022-10-31T06:32:46;8.50;;;4.00;;
72117;SDS011;59992;47.490;8.736;2022-10-31T06:35:35;10.50;;;3.20;;
72117;SDS011;59992;47.490;8.736;2022-10-31T06:38:24;9.90;;;3.30;;
72117;SDS011;59992;47.490;8.736;2022-10-31T06:41:13;7.60;;;3.10;;
72117;SDS011;59992;47.490;8.736;2022-10-31T06:44:01;5.70;;;2.30;;
72117;SDS011;59992;47.490;8.736;2022-10-31T06:46:49;9.50;;;2.80;;
72117;SDS011;59992;47.490;8.736;2022-10-31T06:49:37;5.80;;;2.30;;
72117;SDS011;59992;47.490;8.736;2022-10-31T06:52:25;5.90;;;2.50;;
72117;SDS011;59992;47.490;8.736;2022-10-31T06:55:14;8.40;;;3.70;;
72117;SDS011;59992;47.490;8.736;2022-10-31T06:58:03;6.70;;;3.80;;
72117;SDS011;59992;47.490;8.736;2022-10-31T07:00:51;8.10;;;4.30;;
72117;SDS011;59992;47.490;8.736;2022-10-31T07:03:39;8.30;;;3.90;;
72117;SDS011;59992;47.490;8.736;2022-10-31T07:06:27;7.60;;;4.30;;
72117;SDS011;59992;47.490;8.736;2022-10-31T07:09:15;8.30;;;4.00;;
72117;SDS011;59992;47.490;8.736;2022-10-31T07:12:03;8.40;;;4.50;;
72117;SDS011;59992;47.490;8.736;2022-10-31T07:14:52;9.10;;;4.70;;
72117;SDS011;59992;47.490;8.736;2022-10-31T07:17:40;8.50;;;4.40;;
72117;SDS011;59992;47.490;8.736;2022-10-31T07:20:28;10.60;;;4.30;;
72117;SDS011;59992;47.490;8.736;2022-10-31T07:23:16;8.10;;;4.50;;
72117;SDS011;59992;47.490;8.736;2022-10-31T07:26:05;12.90;;;5.20;;
72117;SDS011;59992;47.490;8.736;2022-10-31T07:28:53;7.80;;;4.50;;
72117;SDS011;59992;47.490;8.736;2022-10-31T07:31:41;8.30;;;4.40;;
72117;SDS011;59992;47.490;8.736;2022-10-31T07:34:31;12.30;;;4.50;;
72117;SDS011;59992;47.490;8.736;2022-10-31T07:37:19;6.80;;;3.80;;
72117;SDS011;59992;47.490;8.736;2022-10-31T07:40:08;8.90;;;4.30;;
72117;SDS011;59992;47.490;8.736;2022-10-31T07:42:57;7.50;;;4.20;;
72117;SDS011;59992;47.490;8.736;2022-10-31T07:45:49;7.10;;;4.40;;
72117;SDS011;59992;47.490;8.736;2022-10-31T07:48:38;10.30;;;4.60;;
72117;SDS011;59992;47.490;8.736;2022-10-31T07:51:26;8.60;;;4.60;;
72117;SDS011;59992;47.490;8.736;2022-10-31T07:54:14;9.50;;;4.80;;
72117;SDS011;59992;47.490;8.736;2022-10-31T07:57:02;11.60;;;6.00;;
72117;SDS011;59992;47.490;8.736;2022-10-31T07:59:50;10.60;;;4.70;;
72117;SDS011;59992;47.490;8.736;2022-10-31T08:02:38;7.50;;;4.70;;
72117;SDS011;59992;47.490;8.736;2022-10-31T08:05:27;10.80;;;5.20;;
72117;SDS011;59992;47.490;8.736;2022-10-31T08:08:16;13.10;;;5.10;;
72117;SDS011;59992;47.490;8.736;2022-10-31T08:11:04;9.60;;;5.20;;
72117;SDS011;59992;47.490;8.736;2022-10-31T08:13:52;10.90;;;5.20;;
72117;SDS011;59992;47.490;8.736;2022-10-31T08:16:41;10.70;;;4.70;;
72117;SDS011;59992;47.490;8.736;2022-10-31T08:19:29;9.90;;;5.00;;
72117;SDS011;59992;47.490;8.736;2022-10-31T08:22:17;10.60;;;4.30;;
72117;SDS011;59992;47.490;8.736;2022-10-31T08:25:05;9.00;;;4.70;;
72117;SDS011;59992;47.490;8.736;2022-10-31T08:27:55;7.30;;;4.70;;
72117;SDS011;59992;47.490;8.736;2022-10-31T08:30:43;8.00;;;4.10;;
72117;SDS011;59992;47.490;8.736;2022-10-31T08:33:32;8.80;;;4.00;;
72117;SDS011;59992;47.490;8.736;2022-10-31T08:36:20;8.60;;;4.20;;
72117;SDS011;59992;47.490;8.736;2022-10-31T08:39:09;7.00;;;4.20;;
72117;SDS011;59992;47.490;8.736;2022-10-31T08:41:57;6.50;;;4.00;;
72117;SDS011;59992;47.490;8.736;2022-10-31T08:44:46;8.10;;;3.80;;
72117;SDS011;59992;47.490;8.736;2022-10-31T08:47:34;12.10;;;4.20;;
72117;SDS011;59992;47.490;8.736;2022-10-31T08:50:22;10.50;;;4.10;;
72117;SDS011;59992;47.490;8.736;2022-10-31T08:53:11;8.00;;;3.60;;
72117;SDS011;59992;47.490;8.736;2022-10-31T08:56:00;7.40;;;4.20;;
72117;SDS011;59992;47.490;8.736;2022-10-31T08:58:49;7.90;;;4.10;;
72117;SDS011;59992;47.490;8.736;2022-10-31T09:01:39;8.50;;;3.50;;
72117;SDS011;59992;47.490;8.736;2022-10-31T09:04:27;9.60;;;3.90;;
72117;SDS011;59992;47.490;8.736;2022-10-31T09:07:15;9.70;;;3.80;;
72117;SDS011;59992;47.490;8.736;2022-10-31T09:10:03;7.00;;;3.20;;
72117;SDS011;59992;47.490;8.736;2022-10-31T09:12:55;7.20;;;3.60;;
72117;SDS011;59992;47.490;8.736;2022-10-31T09:15:44;7.80;;;3.50;;
72117;SDS011;59992;47.490;8.736;2022-10-31T09:18:34;9.10;;;3.60;;
72117;SDS011;59992;47.490;8.736;2022-10-31T09:21:22;7.60;;;3.50;;
72117;SDS011;59992;47.490;8.736;2022-10-31T09:24:11;7.40;;;3.50;;
72117;SDS011;59992;47.490;8.736;2022-10-31T09:26:59;6.80;;;3.60;;
72117;SDS011;59992;47.490;8.736;2022-10-31T09:29:47;5.60;;;3.50;;
72117;SDS011;59992;47.490;8.736;2022-10-31T09:32:35;5.90;;;3.80;;
72117;SDS011;59992;47.490;8.736;2022-10-31T09:35:23;7.10;;;3.40;;
72117;SDS011;59992;47.490;8.736;2022-10-31T09:38:12;9.20;;;4.30;;
72117;SDS011;59992;47.490;8.736;2022-10-31T09:41:03;7.60;;;3.60;;
72117;SDS011;59992;47.490;8.736;2022-10-31T09:44:06;8.10;;;3.70;;
72117;SDS011;59992;47.490;8.736;2022-10-31T09:47:05;11.10;;;3.60;;
72117;SDS011;59992;47.490;8.736;2022-10-31T09:50:06;8.90;;;3.90;;
72117;SDS011;59992;47.490;8.736;2022-10-31T09:53:05;6.50;;;3.30;;
72117;SDS011;59992;47.490;8.736;2022-10-31T09:55:59;8.40;;;3.70;;
72117;SDS011;59992;47.490;8.736;2022-10-31T09:58:49;7.70;;;3.70;;
72117;SDS011;59992;47.490;8.736;2022-10-31T10:01:42;6.00;;;3.60;;
72117;SDS011;59992;47.490;8.736;2022-10-31T10:04:36;8.60;;;4.00;;
72117;SDS011;59992;47.490;8.736;2022-10-31T10:07:30;20.00;;;5.60;;
72117;SDS011;59992;47.490;8.736;2022-10-31T10:10:27;9.70;;;3.80;;
72117;SDS011;59992;47.490;8.736;2022-10-31T10:13:34;8.00;;;3.90;;
72117;SDS011;59992;47.490;8.736;2022-10-31T10:16:43;7.40;;;4.20;;
72117;SDS011;59992;47.490;8.736;2022-10-31T10:19:46;8.10;;;4.10;;
72117;SDS011;59992;47.490;8.736;2022-10-31T10:22:43;8.10;;;3.80;;
72117;SDS011;59992;47.490;8.736;2022-10-31T10:25:37;10.20;;;4.00;;
72117;SDS011;59992;47.490;8.736;2022-10-31T10:28:27;9.40;;;4.00;;
72117;SDS011;59992;47.490;8.736;2022-10-31T10:31:26;7.80;;;3.50;;
72117;SDS011;59992;47.490;8.736;2022-10-31T10:34:19;8.80;;;3.20;;
72117;SDS011;59992;47.490;8.736;2022-10-31T10:37:32;9.70;;;4.00;;
72117;SDS011;59992;47.490;8.736;2022-10-31T10:40:36;11.90;;;4.00;;
72117;SDS011;59992;47.490;8.736;2022-10-31T10:43:31;7.90;;;4.20;;
72117;SDS011;59992;47.490;8.736;2022-10-31T10:46:23;8.90;;;4.10;;
72117;SDS011;59992;47.490;8.736;2022-10-31T10:49:37;8.80;;;4.50;;
72117;SDS011;59992;47.490;8.736;2022-10-31T10:52:33;9.70;;;4.40;;
72117;SDS011;59992;47.490;8.736;2022-10-31T10:55:32;8.40;;;4.90;;
72117;SDS011;59992;47.490;8.736;2022-10-31T10:58:28;12.30;;;4.60;;
72117;SDS011;59992;47.490;8.736;2022-10-31T11:01:17;7.40;;;4.40;;
72117;SDS011;59992;47.490;8.736;2022-10-31T11:04:07;10.70;;;4.80;;
72117;SDS011;59992;47.490;8.736;2022-10-31T11:07:10;7.20;;;4.90;;
72117;SDS011;59992;47.490;8.736;2022-10-31T11:10:03;12.20;;;5.10;;
72117;SDS011;59992;47.490;8.736;2022-10-31T11:13:14;10.70;;;5.20;;
72117;SDS011;59992;47.490;8.736;2022-10-31T11:16:08;17.40;;;5.60;;
72117;SDS011;59992;47.490;8.736;2022-10-31T11:19:06;11.80;;;5.60;;
72117;SDS011;59992;47.490;8.736;2022-10-31T11:22:07;12.70;;;5.90;;
72117;SDS011;59992;47.490;8.736;2022-10-31T11:25:11;12.10;;;5.30;;
72117;SDS011;59992;47.490;8.736;2022-10-31T11:28:09;12.70;;;5.00;;
72117;SDS011;59992;47.490;8.736;2022-10-31T11:30:57;9.80;;;5.10;;
72117;SDS011;59992;47.490;8.736;2022-10-31T11:33:56;11.10;;;5.40;;
72117;SDS011;59992;47.490;8.736;2022-10-31T11:36:55;11.40;;;5.30;;
72117;SDS011;59992;47.490;8.736;2022-10-31T11:39:57;12.80;;;5.50;;
72117;SDS011;59992;47.490;8.736;2022-10-31T11:42:53;10.80;;;5.60;;
72117;SDS011;59992;47.490;8.736;2022-10-31T11:45:44;9.70;;;5.80;;
72117;SDS011;59992;47.490;8.736;2022-10-31T11:48:32;10.10;;;5.10;;
72117;SDS011;59992;47.490;8.736;2022-10-31T11:51:21;9.50;;;5.30;;
72117;SDS011;59992;47.490;8.736;2022-10-31T11:54:18;9.30;;;5.20;;
72117;SDS011;59992;47.490;8.736;2022-10-31T11:57:21;9.80;;;5.10;;
72117;SDS011;59992;47.490;8.736;2022-10-31T12:00:20;12.60;;;6.00;;
72117;SDS011;59992;47.490;8.736;2022-10-31T12:03:22;12.50;;;5.60;;
72117;SDS011;59992;47.490;8.736;2022-10-31T12:06:20;8.20;;;5.60;;
72117;SDS011;59992;47.490;8.736;2022-10-31T12:09:14;12.30;;;5.80;;
72117;SDS011;59992;47.490;8.736;2022-10-31T12:12:16;12.40;;;6.40;;
72117;SDS011;59992;47.490;8.736;2022-10-31T12:15:22;9.20;;;6.00;;
72117;SDS011;59992;47.490;8.736;2022-10-31T12:18:22;9.30;;;6.00;;
72117;SDS011;59992;47.490;8.736;2022-10-31T12:21:23;9.60;;;5.00;;
72117;SDS011;59992;47.490;8.736;2022-10-31T12:24:26;11.30;;;5.20;;
72117;SDS011;59992;47.490;8.736;2022-10-31T12:27:26;9.10;;;4.70;;
72117;SDS011;59992;47.490;8.736;2022-10-31T12:30:23;9.40;;;5.60;;
72117;SDS011;59992;47.490;8.736;2022-10-31T12:33:20;8.90;;;5.80;;
72117;SDS011;59992;47.490;8.736;2022-10-31T12:36:24;10.10;;;5.30;;
72117;SDS011;59992;47.490;8.736;2022-10-31T12:39:28;11.50;;;5.30;;
72117;SDS011;59992;47.490;8.736;2022-10-31T12:42:27;12.00;;;6.20;;
72117;SDS011;59992;47.490;8.736;2022-10-31T12:45:39;18.40;;;6.80;;
72117;SDS011;59992;47.490;8.736;2022-10-31T12:48:42;15.30;;;7.40;;
72117;SDS011;59992;47.490;8.736;2022-10-31T12:51:56;15.30;;;7.10;;
72117;SDS011;59992;47.490;8.736;2022-10-31T12:55:09;15.90;;;7.20;;
72117;SDS011;59992;47.490;8.736;2022-10-31T12:58:09;10.90;;;5.70;;
72117;SDS011;59992;47.490;8.736;2022-10-31T13:01:04;11.30;;;5.20;;
72117;SDS011;59992;47.490;8.736;2022-10-31T13:04:01;13.80;;;5.80;;
72117;SDS011;59992;47.490;8.736;2022-10-31T13:06:53;11.20;;;5.40;;
72117;SDS011;59992;47.490;8.736;2022-10-31T13:09:53;12.10;;;5.70;;
72117;SDS011;59992;47.490;8.736;2022-10-31T13:12:46;12.60;;;6.00;;
72117;SDS011;59992;47.490;8.736;2022-10-31T13:15:41;14.60;;;6.30;;
72117;SDS011;59992;47.490;8.736;2022-10-31T13:18:37;12.20;;;6.60;;
72117;SDS011;59992;47.490;8.736;2022-10-31T13:21:32;14.80;;;6.90;;
72117;SDS011;59992;47.490;8.736;2022-10-31T13:24:25;13.10;;;6.10;;
72117;SDS011;59992;47.490;8.736;2022-10-31T13:27:20;11.40;;;6.20;;
72117;SDS011;59992;47.490;8.736;2022-10-31T13:30:16;10.90;;;6.00;;
72117;SDS011;59992;47.490;8.736;2022-10-31T13:33:09;12.40;;;5.10;;
72117;SDS011;59992;47.490;8.736;2022-10-31T13:36:09;8.80;;;4.70;;
72117;SDS011;59992;47.490;8.736;2022-10-31T13:39:13;9.10;;;4.80;;
72117;SDS011;59992;47.490;8.736;2022-10-31T13:42:14;9.40;;;4.70;;
72117;SDS011;59992;47.490;8.736;2022-10-31T13:45:12;15.00;;;5.90;;
72117;SDS011;59992;47.490;8.736;2022-10-31T13:48:18;12.00;;;5.20;;
72117;SDS011;59992;47.490;8.736;2022-10-31T13:51:27;11.10;;;5.40;;
72117;SDS011;59992;47.490;8.736;2022-10-31T13:54:21;10.80;;;5.70;;
72117;SDS011;59992;47.490;8.736;2022-10-31T13:57:16;12.70;;;5.80;;
72117;SDS011;59992;47.490;8.736;2022-10-31T14:00:42;13.10;;;4.70;;
72117;SDS011;59992;47.490;8.736;2022-10-31T14:03:31;12.40;;;5.60;;
72117;SDS011;59992;47.490;8.736;2022-10-31T14:06:23;10.70;;;5.30;;
72117;SDS011;59992;47.490;8.736;2022-10-31T14:09:24;13.70;;;5.50;;
72117;SDS011;59992;47.490;8.736;2022-10-31T14:12:25;13.90;;;5.30;;
72117;SDS011;59992;47.490;8.736;2022-10-31T14:15:18;11.00;;;5.60;;
72117;SDS011;59992;47.490;8.736;2022-10-31T14:18:19;13.10;;;5.70;;
72117;SDS011;59992;47.490;8.736;2022-10-31T14:21:25;11.50;;;5.20;;
72117;SDS011;59992;47.490;8.736;2022-10-31T14:24:29;13.30;;;4.90;;
72117;SDS011;59992;47.490;8.736;2022-10-31T14:30:39;10.20;;;5.50;;
72117;SDS011;59992;47.490;8.736;2022-10-31T14:33:40;14.00;;;5.70;;
72117;SDS011;59992;47.490;8.736;2022-10-31T14:36:33;14.60;;;5.50;;
72117;SDS011;59992;47.490;8.736;2022-10-31T14:39:30;12.80;;;4.90;;
72117;SDS011;59992;47.490;8.736;2022-10-31T14:42:28;9.20;;;5.30;;
72117;SDS011;59992;47.490;8.736;2022-10-31T14:45:31;12.20;;;4.80;;
72117;SDS011;59992;47.490;8.736;2022-10-31T14:48:36;11.20;;;4.80;;
72117;SDS011;59992;47.490;8.736;2022-10-31T14:51:35;11.10;;;5.20;;
72117;SDS011;59992;47.490;8.736;2022-10-31T14:54:27;10.10;;;4.80;;
72117;SDS011;59992;47.490;8.736;2022-10-31T14:57:21;9.80;;;4.90;;
72117;SDS011;59992;47.490;8.736;2022-10-31T15:00:15;12.00;;;5.30;;
72117;SDS011;59992;47.490;8.736;2022-10-31T15:03:07;13.60;;;4.90;;
72117;SDS011;59992;47.490;8.736;2022-10-31T15:06:02;13.60;;;5.30;;
72117;SDS011;59992;47.490;8.736;2022-10-31T15:08:56;13.00;;;5.00;;
72117;SDS011;59992;47.490;8.736;2022-10-31T15:11:44;11.00;;;5.70;;
72117;SDS011;59992;47.490;8.736;2022-10-31T15:14:32;10.00;;;5.50;;
72117;SDS011;59992;47.490;8.736;2022-10-31T15:17:21;11.40;;;5.60;;
72117;SDS011;59992;47.490;8.736;2022-10-31T15:20:12;14.30;;;5.30;;
72117;SDS011;59992;47.490;8.736;2022-10-31T15:23:20;11.60;;;6.00;;
72117;SDS011;59992;47.490;8.736;2022-10-31T15:26:13;13.60;;;5.70;;
72117;SDS011;59992;47.490;8.736;2022-10-31T15:29:05;10.70;;;5.70;;
72117;SDS011;59992;47.490;8.736;2022-10-31T15:31:59;14.00;;;5.70;;
72117;SDS011;59992;47.490;8.736;2022-10-31T15:35:08;12.40;;;6.20;;
72117;SDS011;59992;47.490;8.736;2022-10-31T15:37:57;13.00;;;6.40;;
72117;SDS011;59992;47.490;8.736;2022-10-31T15:40:51;14.90;;;6.90;;
72117;SDS011;59992;47.490;8.736;2022-10-31T15:43:44;12.30;;;6.90;;
72117;SDS011;59992;47.490;8.736;2022-10-31T15:46:32;11.40;;;6.90;;
72117;SDS011;59992;47.490;8.736;2022-10-31T15:49:25;14.30;;;7.00;;
72117;SDS011;59992;47.490;8.736;2022-10-31T15:52:17;21.10;;;7.50;;
72117;SDS011;59992;47.490;8.736;2022-10-31T15:55:15;17.50;;;8.30;;
72117;SDS011;59992;47.490;8.736;2022-10-31T15:58:10;16.10;;;8.20;;
72117;SDS011;59992;47.490;8.736;2022-10-31T16:01:02;18.10;;;8.60;;
72117;SDS011;59992;47.490;8.736;2022-10-31T16:04:04;18.80;;;8.80;;
72117;SDS011;59992;47.490;8.736;2022-10-31T16:07:12;17.80;;;9.70;;
72117;SDS011;59992;47.490;8.736;2022-10-31T16:10:03;21.00;;;10.30;;
72117;SDS011;59992;47.490;8.736;2022-10-31T16:13:09;16.10;;;9.80;;
72117;SDS011;59992;47.490;8.736;2022-10-31T16:15:57;20.20;;;11.40;;
72117;SDS011;59992;47.490;8.736;2022-10-31T16:18:47;17.40;;;9.40;;
72117;SDS011;59992;47.490;8.736;2022-10-31T16:21:37;24.00;;;10.80;;
72117;SDS011;59992;47.490;8.736;2022-10-31T16:24:26;21.50;;;11.10;;
72117;SDS011;59992;47.490;8.736;2022-10-31T16:27:18;20.90;;;12.40;;
72117;SDS011;59992;47.490;8.736;2022-10-31T16:30:35;17.20;;;11.30;;
72117;SDS011;59992;47.490;8.736;2022-10-31T16:33:26;25.40;;;13.00;;
72117;SDS011;59992;47.490;8.736;2022-10-31T16:36:31;27.60;;;12.70;;
72117;SDS011;59992;47.490;8.736;2022-10-31T16:39:22;26.20;;;14.80;;
72117;SDS011;59992;47.490;8.736;2022-10-31T16:42:10;25.50;;;13.30;;
72117;SDS011;59992;47.490;8.736;2022-10-31T16:44:58;21.80;;;14.50;;
72117;SDS011;59992;47.490;8.736;2022-10-31T16:47:47;30.40;;;15.00;;
72117;SDS011;59992;47.490;8.736;2022-10-31T16:50:36;31.00;;;16.50;;
72117;SDS011;59992;47.490;8.736;2022-10-31T16:53:24;30.20;;;15.80;;
72117;SDS011;59992;47.490;8.736;2022-10-31T16:56:14;28.60;;;16.70;;
72117;SDS011;59992;47.490;8.736;2022-10-31T16:59:05;28.20;;;16.60;;
72117;SDS011;59992;47.490;8.736;2022-10-31T17:01:58;27.90;;;16.50;;
72117;SDS011;59992;47.490;8.736;2022-10-31T17:04:48;28.20;;;16.70;;
72117;SDS011;59992;47.490;8.736;2022-10-31T17:07:36;28.80;;;16.40;;
72117;SDS011;59992;47.490;8.736;2022-10-31T17:10:25;28.90;;;17.70;;
72117;SDS011;59992;47.490;8.736;2022-10-31T17:13:17;29.90;;;17.90;;
72117;SDS011;59992;47.490;8.736;2022-10-31T17:16:09;27.60;;;17.20;;
72117;SDS011;59992;47.490;8.736;2022-10-31T17:19:00;28.50;;;15.80;;